ADDS METAR Data INFO
IDs: Format: Raw Decoded Include TAF

Data at: 0021 UTC 23 Oct 2017

K4A6 230015Z AUTO 00000KT 10SM OVC065 22/19 A3005 RMK AO2
K4A6 222355Z AUTO 00000KT 10SM BKN060 BKN080 23/19 A3006 RMK AO2
K4A6 222335Z AUTO 00000KT 10SM SCT075 23/19 A3005 RMK AO2
K4A6 222315Z AUTO 00000KT 10SM BKN070 BKN085 24/18 A3005 RMK AO2
K4A6 222255Z AUTO VRB04KT 10SM BKN070 BKN080 24/18 A3006 RMK AO2
K4A6 222235Z AUTO VRB03KT 10SM BKN070 24/18 A3007 RMK AO2
K4A6 222215Z AUTO VRB03KT 10SM SCT065 25/18 A3007 RMK AO2
K4A6 222155Z AUTO VRB03KT 10SM FEW065 25/18 A3007 RMK AO2
K4A6 222135Z AUTO VRB06KT 10SM FEW065 FEW070 25/18 A3007 RMK AO2
K4A6 222115Z AUTO 15005KT 10SM FEW070 25/18 A3008 RMK AO2
K4A6 222055Z AUTO VRB05G11KT 10SM FEW070 25/18 A3009 RMK AO2
K4A6 222035Z AUTO 18007G12KT 150V230 10SM FEW037 FEW065 25/18 A3010 RMK AO2
K4A6 222015Z AUTO 00000G13KT 10SM FEW043 BKN065 25/18 A3009 RMK AO2
K4A6 221955Z AUTO VRB06KT 10SM BKN042 BKN050 BKN060 26/17 A3010 RMK AO2
K4A6 221935Z AUTO VRB04G11KT 10SM FEW040 SCT047 26/18 A3010 RMK AO2
K4A6 221915Z AUTO VRB05G14KT 10SM FEW039 SCT046 26/18 A3011 RMK AO2
K4A6 221855Z AUTO VRB04G14KT 10SM FEW037 26/18 A3012 RMK AO2
K4A6 221835Z AUTO VRB06G12KT 10SM SCT036 SCT042 26/18 A3012 RMK AO2
K4A6 221815Z AUTO 15009G15KT 10SM BKN036 BKN042 26/17 A3013 RMK AO2
K4A6 221755Z AUTO 19008G19KT 160V230 10SM SCT036 SCT042 26/18 A3014 RMK AO2
K4A6 221735Z AUTO 16010KT 110V190 10SM BKN035 BKN042 25/18 A3016 RMK AO2
K4A6 221715Z AUTO 18010G15KT 140V220 10SM BKN032 26/18 A3016 RMK AO2
K4A6 221655Z AUTO 16008G19KT 060V210 10SM SCT031 25/18 A3017 RMK AO2
K4A6 221635Z AUTO 19010G16KT 160V220 10SM SCT031 25/17 A3018 RMK AO2
K4A6 221615Z AUTO 16011G20KT 130V200 10SM FEW033 SCT040 24/17 A3019 RMK AO2
K4A6 221555Z AUTO VRB06G13KT 10SM SCT035 SCT040 24/17 A3019 RMK AO2
K4A6 221535Z AUTO 15008G14KT 110V240 10SM BKN039 23/17 A3018 RMK AO2
K4A6 221515Z AUTO VRB06KT 10SM BKN039 22/17 A3019 RMK AO2
K4A6 221455Z AUTO VRB05KT 10SM SCT039 22/17 A3020 RMK AO2
K4A6 221435Z AUTO 00000G12KT 10SM FEW043 SCT055 21/17 A3021 RMK AO2
K4A6 221415Z AUTO 13007KT 080V200 10SM FEW045 BKN055 21/17 A3021 RMK AO2
K4A6 221355Z AUTO 00000G10KT 10SM BKN055 21/17 A3022 RMK AO2
K4A6 221335Z AUTO VRB04G10KT 10SM OVC050 20/17 A3022 RMK AO2
K4A6 221315Z AUTO 00000KT 10SM OVC050 20/17 A3022 RMK AO2
K4A6 221255Z AUTO VRB03G10KT 10SM SCT050 20/17 A3022 RMK AO2
K4A6 221235Z AUTO VRB03G12KT 10SM CLR 19/17 A3022 RMK AO2
K4A6 221215Z AUTO VRB06KT 10SM FEW018 19/17 A3021 RMK AO2
K4A6 221155Z AUTO 00000KT 10SM CLR 19/16 A3021 RMK AO2
K4A6 221135Z AUTO 00000KT 10SM CLR 19/16 A3021 RMK AO2
K4A6 221115Z AUTO 00000G10KT 10SM CLR 19/16 A3021 RMK AO2
K4A6 221055Z AUTO VRB06G12KT 10SM CLR 18/16 A3021 RMK AO2
K4A6 221035Z AUTO VRB03KT 10SM CLR 18/15 A3020 RMK AO2
K4A6 221015Z AUTO 00000KT 10SM CLR 15/15 A3019 RMK AO2
K4A6 220955Z AUTO 00000KT 10SM SCT049 13/13 A3019 RMK AO2
K4A6 220935Z AUTO 00000KT 10SM OVC049 14/14 A3019 RMK AO2
K4A6 220915Z AUTO 00000KT 10SM OVC048 14/14 A3019 RMK AO2
K4A6 220855Z AUTO 00000KT 10SM OVC049 14/14 A3020 RMK AO2
K4A6 220835Z AUTO 00000KT 10SM OVC050 13/13 A3020 RMK AO2
K4A6 220815Z AUTO 00000KT 10SM OVC050 13/13 A3020 RMK AO2
K4A6 220755Z AUTO 00000KT 10SM OVC050 13/13 A3020 RMK AO2
K4A6 220735Z AUTO 00000KT 10SM OVC050 13/13 A3021 RMK AO2
K4A6 220715Z AUTO 00000KT 10SM OVC050 13/13 A3022 RMK AO2
K4A6 220655Z AUTO 00000KT 10SM OVC055 13/13 A3022 RMK AO2
K4A6 220635Z AUTO 00000KT 10SM BKN055 13/13 A3023 RMK AO2
K4A6 220615Z AUTO 00000KT 10SM CLR 13/13 A3023 RMK AO2
K4A6 220555Z AUTO 00000KT 10SM CLR 13/13 A3023 RMK AO2
K4A6 220535Z AUTO 00000KT 10SM CLR 13/13 A3024 RMK AO2
K4A6 220515Z AUTO 00000KT 10SM CLR 14/14 A3024 RMK AO2
K4A6 220455Z AUTO 00000KT 10SM CLR 14/14 A3025 RMK AO2
K4A6 220435Z AUTO 00000KT 10SM CLR 14/14 A3025 RMK AO2
K4A6 220415Z AUTO 00000KT 10SM SCT047 15/14 A3025 RMK AO2
K4A6 220355Z AUTO 00000KT 10SM BKN047 15/14 A3025 RMK AO2
K4A6 220335Z AUTO 00000KT 10SM SCT047 15/14 A3025 RMK AO2
K4A6 220315Z AUTO 00000KT 10SM CLR 16/13 A3025 RMK AO2
K4A6 220255Z AUTO 00000KT 10SM CLR 16/13 A3025 RMK AO2
K4A6 220235Z AUTO 00000KT 10SM CLR 16/14 A3025 RMK AO2
K4A6 220215Z AUTO 00000KT 10SM CLR 16/14 A3024 RMK AO2
K4A6 220155Z AUTO 00000KT 10SM CLR 17/13 A3024 RMK AO2
K4A6 220135Z AUTO 00000KT 10SM CLR 18/13 A3023 RMK AO2
K4A6 220115Z AUTO 00000KT 10SM CLR 18/13 A3023 RMK AO2
K4A6 220055Z AUTO 00000KT 10SM CLR 18/13 A3023 RMK AO2
K4A6 220035Z AUTO 00000KT 10SM CLR 19/13 A3022 RMK AO2
K4A6 220015Z AUTO 00000KT 10SM CLR 20/13 A3022 RMK AO2
K4A6 212355Z AUTO 00000KT 10SM CLR 20/13 A3022 RMK AO2
K4A6 212335Z AUTO 00000KT 10SM CLR 22/13 A3021 RMK AO2
K4A6 212315Z AUTO 00000KT 10SM CLR 21/13 A3021 RMK AO2
K4A6 212255Z AUTO 00000KT 10SM CLR 22/14 A3021 RMK AO2
K4A6 212235Z AUTO VRB03KT 10SM CLR 23/15 A3021 RMK AO2
K4A6 212215Z AUTO 00000KT 10SM CLR 24/14 A3020 RMK AO2
K4A6 212155Z AUTO 00000KT 10SM CLR 24/15 A3020 RMK AO2
K4A6 212135Z AUTO VRB03KT 10SM CLR 25/14 A3020 RMK AO2
K4A6 212115Z AUTO 18007KT 150V230 10SM CLR 26/14 A3020 RMK AO2
K4A6 212055Z AUTO VRB05KT 10SM CLR 25/13 A3020 RMK AO2
K4A6 212035Z AUTO 17005KT 10SM CLR 25/13 A3020 RMK AO2
K4A6 212015Z AUTO 18007KT 10SM CLR 25/14 A3020 RMK AO2
K4A6 211955Z AUTO VRB03KT 10SM CLR 26/13 A3020 RMK AO2
K4A6 211935Z AUTO VRB05KT 10SM CLR 26/12 A3020 RMK AO2
K4A6 211915Z AUTO VRB06KT 10SM CLR 26/13 A3021 RMK AO2
K4A6 211855Z AUTO 00000G10KT 10SM CLR 25/14 A3021 RMK AO2
K4A6 211835Z AUTO 14006KT 10SM CLR 26/13 A3021 RMK AO2
K4A6 211815Z AUTO VRB05KT 10SM CLR 26/13 A3022 RMK AO2
K4A6 211755Z AUTO VRB04G10KT 10SM CLR 26/14 A3023 RMK AO2
K4A6 211735Z AUTO VRB06G11KT 10SM CLR 25/14 A3024 RMK AO2
K4A6 211715Z AUTO 00000KT 10SM CLR 24/15 A3025 RMK AO2
K4A6 211655Z AUTO 00000KT 10SM CLR 23/15 A3026 RMK AO2
K4A6 211635Z AUTO 00000KT 10SM CLR 23/15 A3027 RMK AO2
K4A6 211615Z AUTO 00000KT 10SM CLR 22/15 A3027 RMK AO2
K4A6 211555Z AUTO 3.12500003KT 10SM CLR 20/14 A3028 RMK AO2
K4A6 211535Z AUTO VRB03KT 10SM CLR 20/14 A3028 RMK AO2
K4A6 211515Z AUTO 02004KT 10SM CLR 19/13 A3029 RMK AO2
K4A6 211455Z AUTO 03005KT 10SM CLR 17/13 A3029 RMK AO2
K4A6 211435Z AUTO 03003KT 10SM CLR 16/13 A3029 RMK AO2
K4A6 211415Z AUTO 03005KT 10SM CLR 15/12 A3029 RMK AO2
K4A6 211355Z AUTO 00000KT 10SM CLR 13/13 A3029 RMK AO2
K4A6 211335Z AUTO 00000KT 10SM CLR 12/12 A3029 RMK AO2
K4A6 211315Z AUTO 00000KT 10SM CLR 11/11 A3028 RMK AO2
K4A6 211255Z AUTO 00000KT 10SM CLR 10/10 A3027 RMK AO2
K4A6 211235Z AUTO 04003KT 10SM CLR 09/09 A3027 RMK AO2